Time;durP1;ratioP1;P1;durP2;ratioP2;P2;SDS_P1;SDS_P2;PMS_P1;PMS_P2;Temp;Humidity;BMP_temperature;BMP_pressure;BME280_temperature;BME280_humidity;BME280_pressure;Samples;Min_cycle;Max_cycle;Signal;HPM_P1;HPM_P2
2022/06/29 00:01:16;;;;;;;7.63;2.20;;;21.70;63.20;;;;;;20996353;28;20203;-69
2022/06/29 00:11:17;;;;;;;7.77;2.40;;;21.80;63.30;;;;;;20993636;28;20666;-70
2022/06/29 00:21:20;;;;;;;6.33;2.67;;;21.80;63.60;;;;;;20977684;28;20276;-69
2022/06/29 00:31:23;;;;;;;5.87;2.40;;;21.80;63.60;;;;;;21006530;28;20242;-70
2022/06/29 00:41:25;;;;;;;2.47;2.00;;;21.80;64.10;;;;;;21006421;28;20227;-72
2022/06/29 00:51:29;;;;;;;4.37;2.23;;;21.80;65.30;;;;;;21005092;28;20277;-70
2022/06/29 01:01:32;;;;;;;3.03;2.40;;;21.80;66.80;;;;;;21004225;28;20269;-69
2022/06/29 01:11:34;;;;;;;7.77;2.60;;;21.70;67.30;;;;;;21003862;28;20242;-72
2022/06/29 01:21:40;;;;;;;4.37;2.27;;;21.70;67.60;;;;;;21003082;28;20256;-69
2022/06/29 01:31:42;;;;;;;3.47;2.30;;;21.70;67.90;;;;;;21001338;28;20234;-69
2022/06/29 01:41:44;;;;;;;3.53;2.50;;;21.60;67.80;;;;;;21001222;28;20292;-67
2022/06/29 01:51:46;;;;;;;3.57;2.47;;;21.60;67.70;;;;;;21000082;28;20235;-67
2022/06/29 02:01:48;;;;;;;3.20;2.70;;;21.50;67.60;;;;;;20999377;28;20203;-68
2022/06/29 02:11:51;;;;;;;6.23;2.90;;;21.40;68.10;;;;;;20998778;28;20234;-67
2022/06/29 02:21:52;;;;;;;5.40;2.90;;;21.30;68.80;;;;;;20998413;28;20268;-68
2022/06/29 02:42:15;;;;;;;5.40;2.90;;;21.30;69.10;;;;;;20995783;28;20327;-68
2022/06/29 02:52:16;;;;;;;7.60;4.17;;;21.30;69.20;;;;;;20997790;28;20779;-70
2022/06/29 03:02:18;;;;;;;6.27;3.83;;;21.30;69.60;;;;;;20996142;28;20260;-72
2022/06/29 03:12:20;;;;;;;6.97;4.37;;;21.30;69.70;;;;;;20996051;28;20235;-71
2022/06/29 03:22:21;;;;;;;8.20;4.47;;;21.30;70.00;;;;;;20995114;28;20677;-67
2022/06/29 03:32:26;;;;;;;6.40;4.60;;;21.30;69.90;;;;;;20994882;28;20246;-68
2022/06/29 03:42:29;;;;;;;6.87;4.43;;;21.30;70.00;;;;;;20993705;28;20227;-67
2022/06/29 03:52:30;;;;;;;7.33;5.30;;;21.30;70.10;;;;;;20996156;28;20235;-67
2022/06/29 04:02:32;;;;;;;6.10;4.50;;;21.30;70.40;;;;;;21008158;28;20206;-66
2022/06/29 04:12:35;;;;;;;4.60;4.10;;;21.30;70.40;;;;;;20991945;28;20291;-67
2022/06/29 04:22:37;;;;;;;9.17;4.20;;;21.30;71.30;;;;;;21007751;28;20203;-68
2022/06/29 04:32:39;;;;;;;8.73;4.63;;;21.30;70.50;;;;;;21006365;28;20592;-70
2022/06/29 04:42:41;;;;;;;7.87;4.40;;;21.30;71.30;;;;;;21004671;28;20285;-71
2022/06/29 04:52:42;;;;;;;21.67;5.10;;;21.30;71.40;;;;;;21005800;28;20712;-69
2022/06/29 05:02:44;;;;;;;14.50;5.00;;;21.40;71.60;;;;;;21005253;28;20206;-69
2022/06/29 05:12:46;;;;;;;18.37;5.17;;;21.40;71.80;;;;;;21002846;28;20238;-70
2022/06/29 05:22:48;;;;;;;18.00;6.37;;;21.40;71.90;;;;;;21075598;28;20601;-71
2022/06/29 05:32:50;;;;;;;16.27;6.87;;;21.50;72.40;;;;;;21087753;28;20689;-72
2022/06/29 05:42:54;;;;;;;12.47;5.83;;;21.60;72.60;;;;;;21084345;28;20740;-71
2022/06/29 05:52:55;;;;;;;16.77;6.53;;;21.60;72.80;;;;;;21032192;28;20231;-65
2022/06/29 06:02:57;;;;;;;13.53;6.00;;;21.60;73.10;;;;;;20991927;28;20203;-68
2022/06/29 06:12:59;;;;;;;17.77;6.80;;;21.70;73.60;;;;;;20992679;28;20242;-67
2022/06/29 06:23:01;;;;;;;11.00;6.63;;;21.80;74.20;;;;;;20995073;28;20219;-68
2022/06/29 06:33:04;;;;;;;14.47;7.23;;;21.90;74.90;;;;;;20995214;28;20266;-67
2022/06/29 06:43:06;;;;;;;9.60;6.43;;;22.00;75.70;;;;;;20994064;28;20227;-70
2022/06/29 06:53:07;;;;;;;7.07;6.37;;;22.30;76.30;;;;;;20994264;28;20239;-67
2022/06/29 07:03:09;;;;;;;7.03;6.33;;;22.60;76.80;;;;;;20993323;28;20685;-67
2022/06/29 07:13:11;;;;;;;7.63;6.53;;;22.80;76.80;;;;;;20993641;28;20866;-68
2022/06/29 07:23:12;;;;;;;7.10;5.83;;;22.90;77.00;;;;;;20993403;28;20225;-67
2022/06/29 07:33:14;;;;;;;10.17;8.50;;;23.00;77.30;;;;;;21000691;28;20237;-68
2022/06/29 07:43:17;;;;;;;17.17;8.40;;;23.30;77.40;;;;;;21008360;28;20284;-67
2022/06/29 07:53:20;;;;;;;17.80;12.83;;;23.60;77.40;;;;;;21008167;28;20234;-67
2022/06/29 08:03:21;;;;;;;7.80;7.00;;;23.60;77.50;;;;;;21008003;28;20213;-66
2022/06/29 08:13:23;;;;;;;8.07;6.87;;;23.70;77.60;;;;;;21006386;28;20288;-68
2022/06/29 08:23:25;;;;;;;8.13;7.20;;;23.80;77.90;;;;;;21004463;28;20677;-66
2022/06/29 08:33:27;;;;;;;8.50;7.27;;;23.80;78.10;;;;;;21005979;28;20228;-66
2022/06/29 08:43:28;;;;;;;9.43;7.37;;;24.00;78.20;;;;;;21002279;28;20234;-69
2022/06/29 08:53:33;;;;;;;9.93;7.37;;;24.20;78.00;;;;;;21003873;28;20697;-67
2022/06/29 09:03:34;;;;;;;7.63;6.87;;;24.40;78.10;;;;;;21002692;28;20207;-67
2022/06/29 09:13:36;;;;;;;8.47;7.67;;;24.70;77.80;;;;;;21002106;28;20233;-68
2022/06/29 09:23:38;;;;;;;8.47;7.23;;;24.90;77.70;;;;;;21000737;28;20207;-68
2022/06/29 09:33:39;;;;;;;8.97;7.30;;;25.10;77.70;;;;;;21000364;28;20270;-66
2022/06/29 09:43:43;;;;;;;9.43;7.10;;;25.30;77.40;;;;;;20999911;28;20267;-66
2022/06/29 09:53:47;;;;;;;8.97;6.40;;;25.50;77.00;;;;;;20998945;28;20597;-67
2022/06/29 10:03:50;;;;;;;8.43;6.73;;;25.50;76.70;;;;;;20998061;28;20215;-66
2022/06/29 10:13:59;;;;;;;8.17;6.47;;;25.70;76.70;;;;;;20979432;28;20239;-67
2022/06/29 10:24:02;;;;;;;7.53;5.93;;;25.90;76.30;;;;;;20994357;28;20218;-66
2022/06/29 10:34:34;;;;;;;10.50;6.63;;;26.10;75.90;;;;;;20995914;28;20234;-66
2022/06/29 10:44:57;;;;;;;8.13;5.83;;;26.20;75.20;;;;;;20996268;28;20314;-69
2022/06/29 10:55:03;;;;;;;9.80;6.80;;;26.30;74.60;;;;;;20995178;28;20234;-68
2022/06/29 11:05:05;;;;;;;10.10;6.63;;;26.30;74.30;;;;;;20993835;28;20203;-67
2022/06/29 11:25:43;;;;;;;8.90;6.30;;;26.40;74.10;;;;;;20994245;28;20203;-70
2022/06/29 11:35:45;;;;;;;7.20;6.50;;;26.40;74.20;;;;;;20993154;28;20245;-67
2022/06/29 11:45:54;;;;;;;7.07;6.37;;;26.30;74.30;;;;;;20991634;28;20231;-69
2022/06/29 11:55:57;;;;;;;8.17;6.63;;;26.30;74.20;;;;;;20991969;28;20732;-66
2022/06/29 12:06:00;;;;;;;6.87;6.10;;;26.40;73.80;;;;;;20991231;28;20596;-67
2022/06/29 12:16:02;;;;;;;7.63;5.73;;;26.70;73.40;;;;;;21061595;28;20581;-69
2022/06/29 12:26:06;;;;;;;6.63;5.47;;;26.80;72.80;;;;;;21089653;28;20202;-69
2022/06/29 12:36:07;;;;;;;6.83;5.60;;;27.10;72.10;;;;;;21089706;28;20250;-72
2022/06/29 12:46:09;;;;;;;9.40;6.18;;;27.40;71.10;;;;;;21088701;28;20245;-67
2022/06/29 12:56:11;;;;;;;8.50;5.10;;;27.60;70.40;;;;;;21090409;28;20238;-69
2022/06/29 13:06:12;;;;;;;9.18;5.60;;;27.60;69.60;;;;;;21092575;28;20207;-69
2022/06/29 13:16:14;;;;;;;7.50;5.03;;;27.50;69.10;;;;;;21091694;28;20238;-67
2022/06/29 13:26:16;;;;;;;6.50;5.10;;;27.50;68.60;;;;;;21089971;28;20206;-66
2022/06/29 13:36:18;;;;;;;6.75;4.80;;;27.70;67.80;;;;;;21086139;28;20709;-66
2022/06/29 13:46:24;;;;;;;10.68;4.85;;;28.00;67.10;;;;;;21097596;28;20795;-71
2022/06/29 13:56:27;;;;;;;6.00;4.85;;;27.90;66.70;;;;;;21106978;28;20237;-65
2022/06/29 14:06:29;;;;;;;9.27;5.37;;;27.90;66.50;;;;;;21072732;28;20199;-66
2022/06/29 14:16:32;;;;;;;7.68;5.30;;;27.80;66.60;;;;;;21028912;28;20234;-66
2022/06/29 14:26:33;;;;;;;8.00;5.10;;;27.60;67.00;;;;;;20999240;28;20593;-66
2022/06/29 14:36:37;;;;;;;6.33;4.50;;;27.50;67.50;;;;;;20997330;28;20270;-67
2022/06/29 14:46:39;;;;;;;7.87;4.93;;;27.40;67.90;;;;;;20994802;28;20227;-66
2022/06/29 14:56:46;;;;;;;7.40;4.20;;;27.50;68.60;;;;;;20994097;28;20239;-62
2022/06/29 15:07:08;;;;;;;8.82;4.28;;;27.50;68.70;;;;;;20996937;28;20218;-71
2022/06/29 15:17:10;;;;;;;4.50;4.03;;;27.60;69.40;;;;;;20976987;28;20257;-66
2022/06/29 15:27:13;;;;;;;9.43;4.57;;;27.70;72.10;;;;;;20993596;28;20227;-69
2022/06/29 15:47:35;;;;;;;5.67;4.97;;;27.20;73.80;;;;;;20993670;28;20240;-65
2022/06/29 15:57:37;;;;;;;7.23;4.47;;;27.40;74.90;;;;;;21029240;28;20317;-69
2022/06/29 16:07:39;;;;;;;8.43;5.23;;;27.30;75.60;;;;;;21038003;28;20208;-67
2022/06/29 16:17:43;;;;;;;6.57;5.00;;;26.70;78.40;;;;;;21006186;28;20238;-67
2022/06/29 16:27:44;;;;;;;3.77;2.13;;;26.20;80.90;;;;;;21006471;28;20207;-69
2022/06/29 16:37:46;;;;;;;5.73;1.93;;;25.70;82.80;;;;;;21006504;28;20261;-70
2022/06/29 16:47:48;;;;;;;4.13;3.13;;;25.10;84.60;;;;;;21006796;28;20235;-70
2022/06/29 16:57:49;;;;;;;4.73;3.53;;;24.60;89.00;;;;;;21003279;28;20239;-71
2022/06/29 17:07:51;;;;;;;6.43;4.20;;;24.20;90.60;;;;;;21005208;28;20222;-69
2022/06/29 17:17:53;;;;;;;7.20;4.10;;;24.00;91.60;;;;;;21028602;28;21129;-69
2022/06/29 17:27:55;;;;;;;8.03;4.13;;;24.00;92.50;;;;;;21051985;28;20204;-72
2022/06/29 17:37:56;;;;;;;9.13;5.17;;;24.00;92.90;;;;;;21021477;28;20635;-75
2022/06/29 17:47:58;;;;;;;10.20;4.83;;;24.00;93.80;;;;;;21083956;28;20234;-73
2022/06/29 17:58:00;;;;;;;5.87;4.00;;;24.00;94.60;;;;;;21065173;28;20261;-73
2022/06/29 18:08:02;;;;;;;8.97;5.77;;;23.80;95.10;;;;;;21065277;28;20612;-72
2022/06/29 18:18:04;;;;;;;9.60;5.65;;;23.80;95.90;;;;;;21071125;28;20466;-71
2022/06/29 18:28:06;;;;;;;6.70;4.20;;;23.70;96.60;;;;;;21029579;28;20203;-70
2022/06/29 18:38:11;;;;;;;8.40;5.23;;;23.60;97.00;;;;;;21021190;28;20329;-70
2022/06/29 18:48:13;;;;;;;11.20;6.30;;;23.60;97.30;;;;;;21079653;28;20283;-71
2022/06/29 18:58:15;;;;;;;8.17;6.10;;;23.60;97.60;;;;;;21078625;28;20237;-73
2022/06/29 19:08:18;;;;;;;13.90;8.30;;;23.50;98.00;;;;;;21078883;28;20538;-69
2022/06/29 19:18:19;;;;;;;7.77;5.20;;;23.30;98.60;;;;;;21077677;28;20234;-73
2022/06/29 19:28:21;;;;;;;13.13;6.43;;;23.20;98.80;;;;;;21083879;28;20298;-69
2022/06/29 19:38:23;;;;;;;11.83;6.80;;;23.20;98.90;;;;;;21094262;28;20248;-66
2022/06/29 19:48:25;;;;;;;12.30;7.37;;;23.20;99.10;;;;;;21074584;28;20674;-65
2022/06/29 19:58:26;;;;;;;14.07;6.43;;;23.10;99.60;;;;;;21092957;28;20234;-66
2022/06/29 20:08:28;;;;;;;6.70;5.87;;;23.10;99.90;;;;;;21115186;28;20207;-65
2022/06/29 20:18:30;;;;;;;9.97;6.57;;;23.00;99.90;;;;;;21104924;28;20234;-65
2022/06/29 20:28:32;;;;;;;10.10;6.50;;;22.90;99.90;;;;;;21090116;28;20252;-63
2022/06/29 20:38:34;;;;;;;9.77;7.23;;;22.70;99.90;;;;;;21088893;28;20238;-64
2022/06/29 20:48:36;;;;;;;12.30;7.20;;;22.60;99.90;;;;;;21090101;28;20280;-65
2022/06/29 20:58:37;;;;;;;10.77;6.87;;;22.60;99.90;;;;;;21095121;28;20235;-65
2022/06/29 21:08:47;;;;;;;12.10;7.77;;;22.50;99.90;;;;;;21088435;28;20207;-69
2022/06/29 21:18:49;;;;;;;10.97;7.50;;;22.40;99.90;;;;;;21087434;28;20234;-65
2022/06/29 21:28:50;;;;;;;9.30;6.73;;;22.30;99.90;;;;;;21084900;28;20260;-64
2022/06/29 21:38:52;;;;;;;10.93;7.20;;;22.10;99.90;;;;;;21081570;28;20237;-63
2022/06/29 21:59:14;;;;;;;9.70;6.90;;;22.10;99.90;;;;;;21083835;28;20238;-68
2022/06/29 22:09:16;;;;;;;11.03;6.50;;;21.90;99.90;;;;;;21083851;28;20206;-70
2022/06/29 22:19:19;;;;;;;11.63;7.17;;;21.90;99.90;;;;;;21083551;28;20237;-65
2022/06/29 22:29:21;;;;;;;11.87;7.60;;;21.80;99.90;;;;;;21084104;28;20209;-64
2022/06/29 22:39:23;;;;;;;9.00;8.10;;;21.70;99.90;;;;;;21080936;28;20230;-64
2022/06/29 22:49:25;;;;;;;10.47;7.40;;;21.70;99.90;;;;;;21080837;28;20577;-64
2022/06/29 22:59:27;;;;;;;12.50;7.77;;;21.60;99.90;;;;;;21078707;28;20770;-65
2022/06/29 23:09:29;;;;;;;9.40;7.03;;;21.50;99.90;;;;;;21078595;28;20214;-65
2022/06/29 23:19:31;;;;;;;9.70;6.80;;;21.40;99.90;;;;;;21078402;28;20705;-63
2022/06/29 23:29:32;;;;;;;8.50;6.73;;;21.30;99.90;;;;;;21085678;28;20600;-68
2022/06/29 23:39:34;;;;;;;8.50;6.90;;;21.30;99.90;;;;;;21078148;28;20245;-64
2022/06/29 23:49:36;;;;;;;8.10;7.30;;;21.20;99.90;;;;;;21078349;28;20211;-63
2022/06/29 23:59:38;;;;;;;9.53;7.80;;;21.20;99.90;;;;;;21077156;28;20702;-65
